sensor_id;sensor_type;location;lat;lon;timestamp;P1;durP1;ratioP1;P2;durP2;ratioP2
28180;SDS011;15464;50.988;10.318;2023-04-03T00:00:39;4.85;;;1.63;;
28180;SDS011;15464;50.988;10.318;2023-04-03T00:03:06;5.47;;;1.65;;
28180;SDS011;15464;50.988;10.318;2023-04-03T00:05:33;9.23;;;2.13;;
28180;SDS011;15464;50.988;10.318;2023-04-03T00:08:00;8.10;;;2.08;;
28180;SDS011;15464;50.988;10.318;2023-04-03T00:10:28;9.02;;;1.80;;
28180;SDS011;15464;50.988;10.318;2023-04-03T00:12:54;5.90;;;1.58;;
28180;SDS011;15464;50.988;10.318;2023-04-03T00:15:21;5.95;;;1.50;;
28180;SDS011;15464;50.988;10.318;2023-04-03T00:17:48;5.07;;;1.92;;
28180;SDS011;15464;50.988;10.318;2023-04-03T00:20:15;5.88;;;2.08;;
28180;SDS011;15464;50.988;10.318;2023-04-03T00:22:41;6.80;;;1.77;;
28180;SDS011;15464;50.988;10.318;2023-04-03T00:25:08;6.57;;;1.85;;
28180;SDS011;15464;50.988;10.318;2023-04-03T00:27:36;5.53;;;2.10;;
28180;SDS011;15464;50.988;10.318;2023-04-03T00:30:04;7.20;;;1.70;;
28180;SDS011;15464;50.988;10.318;2023-04-03T00:32:32;5.72;;;1.92;;
28180;SDS011;15464;50.988;10.318;2023-04-03T00:34:59;4.57;;;1.63;;
28180;SDS011;15464;50.988;10.318;2023-04-03T00:37:26;11.50;;;2.50;;
28180;SDS011;15464;50.988;10.318;2023-04-03T00:39:52;4.10;;;2.35;;
28180;SDS011;15464;50.988;10.318;2023-04-03T00:42:19;6.50;;;1.80;;
28180;SDS011;15464;50.988;10.318;2023-04-03T00:47:13;5.95;;;2.05;;
28180;SDS011;15464;50.988;10.318;2023-04-03T00:49:43;8.98;;;2.00;;
28180;SDS011;15464;50.988;10.318;2023-04-03T00:52:15;10.07;;;2.03;;
28180;SDS011;15464;50.988;10.318;2023-04-03T00:54:45;7.55;;;2.13;;
28180;SDS011;15464;50.988;10.318;2023-04-03T00:57:15;5.97;;;1.60;;
28180;SDS011;15464;50.988;10.318;2023-04-03T00:59:44;6.85;;;1.88;;
28180;SDS011;15464;50.988;10.318;2023-04-03T01:02:16;7.32;;;1.80;;
28180;SDS011;15464;50.988;10.318;2023-04-03T01:04:44;5.22;;;1.83;;
28180;SDS011;15464;50.988;10.318;2023-04-03T01:09:43;4.63;;;1.80;;
28180;SDS011;15464;50.988;10.318;2023-04-03T01:14:49;5.63;;;2.30;;
28180;SDS011;15464;50.988;10.318;2023-04-03T01:22:43;4.65;;;1.80;;
28180;SDS011;15464;50.988;10.318;2023-04-03T01:25:13;7.95;;;2.50;;
28180;SDS011;15464;50.988;10.318;2023-04-03T01:27:40;6.18;;;1.80;;
28180;SDS011;15464;50.988;10.318;2023-04-03T01:30:07;4.50;;;1.77;;
28180;SDS011;15464;50.988;10.318;2023-04-03T01:32:34;7.28;;;2.25;;
28180;SDS011;15464;50.988;10.318;2023-04-03T01:35:01;7.20;;;1.90;;
28180;SDS011;15464;50.988;10.318;2023-04-03T01:37:28;6.30;;;2.00;;
28180;SDS011;15464;50.988;10.318;2023-04-03T01:39:54;6.47;;;2.13;;
28180;SDS011;15464;50.988;10.318;2023-04-03T01:42:21;9.85;;;2.53;;
28180;SDS011;15464;50.988;10.318;2023-04-03T01:44:47;8.55;;;2.10;;
28180;SDS011;15464;50.988;10.318;2023-04-03T01:47:14;7.82;;;1.88;;
28180;SDS011;15464;50.988;10.318;2023-04-03T01:49:41;7.10;;;1.95;;
28180;SDS011;15464;50.988;10.318;2023-04-03T01:52:08;4.70;;;2.20;;
28180;SDS011;15464;50.988;10.318;2023-04-03T01:54:34;7.40;;;1.90;;
28180;SDS011;15464;50.988;10.318;2023-04-03T01:57:01;8.63;;;2.45;;
28180;SDS011;15464;50.988;10.318;2023-04-03T01:59:28;6.78;;;2.05;;
28180;SDS011;15464;50.988;10.318;2023-04-03T02:01:54;8.10;;;2.45;;
28180;SDS011;15464;50.988;10.318;2023-04-03T02:04:21;5.35;;;2.60;;
28180;SDS011;15464;50.988;10.318;2023-04-03T02:06:49;7.53;;;2.50;;
28180;SDS011;15464;50.988;10.318;2023-04-03T02:09:15;6.35;;;2.45;;
28180;SDS011;15464;50.988;10.318;2023-04-03T02:11:42;9.25;;;2.60;;
28180;SDS011;15464;50.988;10.318;2023-04-03T02:14:09;6.82;;;2.33;;
28180;SDS011;15464;50.988;10.318;2023-04-03T02:16:35;6.53;;;1.90;;
28180;SDS011;15464;50.988;10.318;2023-04-03T02:19:03;5.60;;;2.25;;
28180;SDS011;15464;50.988;10.318;2023-04-03T02:21:29;11.27;;;2.50;;
28180;SDS011;15464;50.988;10.318;2023-04-03T02:23:56;5.07;;;2.13;;
28180;SDS011;15464;50.988;10.318;2023-04-03T02:26:23;7.15;;;1.90;;
28180;SDS011;15464;50.988;10.318;2023-04-03T02:28:49;6.35;;;2.42;;
28180;SDS011;15464;50.988;10.318;2023-04-03T02:31:16;9.38;;;2.33;;
28180;SDS011;15464;50.988;10.318;2023-04-03T02:33:44;9.07;;;2.20;;
28180;SDS011;15464;50.988;10.318;2023-04-03T02:36:10;6.95;;;2.00;;
28180;SDS011;15464;50.988;10.318;2023-04-03T02:38:37;5.65;;;2.47;;
28180;SDS011;15464;50.988;10.318;2023-04-03T02:41:05;7.10;;;2.17;;
28180;SDS011;15464;50.988;10.318;2023-04-03T02:43:33;4.25;;;1.95;;
28180;SDS011;15464;50.988;10.318;2023-04-03T02:46:00;8.02;;;2.60;;
28180;SDS011;15464;50.988;10.318;2023-04-03T02:48:27;7.60;;;2.30;;
28180;SDS011;15464;50.988;10.318;2023-04-03T02:50:54;8.93;;;1.80;;
28180;SDS011;15464;50.988;10.318;2023-04-03T02:53:20;6.88;;;2.13;;
28180;SDS011;15464;50.988;10.318;2023-04-03T02:55:48;8.30;;;2.45;;
28180;SDS011;15464;50.988;10.318;2023-04-03T02:58:15;5.75;;;2.28;;
28180;SDS011;15464;50.988;10.318;2023-04-03T03:00:42;10.15;;;2.83;;
28180;SDS011;15464;50.988;10.318;2023-04-03T03:03:09;7.85;;;2.60;;
28180;SDS011;15464;50.988;10.318;2023-04-03T03:05:36;5.28;;;2.40;;
28180;SDS011;15464;50.988;10.318;2023-04-03T03:08:02;4.72;;;2.00;;
28180;SDS011;15464;50.988;10.318;2023-04-03T03:10:29;5.85;;;1.95;;
28180;SDS011;15464;50.988;10.318;2023-04-03T03:12:56;7.85;;;2.53;;
28180;SDS011;15464;50.988;10.318;2023-04-03T03:15:22;7.28;;;2.42;;
28180;SDS011;15464;50.988;10.318;2023-04-03T03:17:49;6.72;;;2.65;;
28180;SDS011;15464;50.988;10.318;2023-04-03T03:20:16;7.20;;;2.05;;
28180;SDS011;15464;50.988;10.318;2023-04-03T03:22:42;5.75;;;2.00;;
28180;SDS011;15464;50.988;10.318;2023-04-03T03:25:09;8.40;;;2.50;;
28180;SDS011;15464;50.988;10.318;2023-04-03T03:27:36;7.00;;;2.20;;
28180;SDS011;15464;50.988;10.318;2023-04-03T03:30:03;5.82;;;1.80;;
28180;SDS011;15464;50.988;10.318;2023-04-03T03:32:30;8.48;;;2.30;;
28180;SDS011;15464;50.988;10.318;2023-04-03T03:34:57;8.18;;;2.85;;
28180;SDS011;15464;50.988;10.318;2023-04-03T03:37:24;8.63;;;2.00;;
28180;SDS011;15464;50.988;10.318;2023-04-03T03:39:51;6.13;;;2.53;;
28180;SDS011;15464;50.988;10.318;2023-04-03T03:42:17;8.95;;;2.53;;
28180;SDS011;15464;50.988;10.318;2023-04-03T03:44:44;5.70;;;2.22;;
28180;SDS011;15464;50.988;10.318;2023-04-03T03:47:11;10.10;;;2.42;;
28180;SDS011;15464;50.988;10.318;2023-04-03T03:49:38;9.77;;;2.63;;
28180;SDS011;15464;50.988;10.318;2023-04-03T03:52:04;9.18;;;2.50;;
28180;SDS011;15464;50.988;10.318;2023-04-03T03:54:31;6.72;;;2.33;;
28180;SDS011;15464;50.988;10.318;2023-04-03T03:56:58;6.57;;;2.25;;
28180;SDS011;15464;50.988;10.318;2023-04-03T03:59:24;10.30;;;3.03;;
28180;SDS011;15464;50.988;10.318;2023-04-03T04:01:51;5.45;;;2.15;;
28180;SDS011;15464;50.988;10.318;2023-04-03T04:04:18;9.45;;;2.65;;
28180;SDS011;15464;50.988;10.318;2023-04-03T04:06:45;6.28;;;2.17;;
28180;SDS011;15464;50.988;10.318;2023-04-03T04:09:12;5.55;;;2.50;;
28180;SDS011;15464;50.988;10.318;2023-04-03T04:11:38;7.15;;;3.20;;
28180;SDS011;15464;50.988;10.318;2023-04-03T04:14:06;10.38;;;2.53;;
28180;SDS011;15464;50.988;10.318;2023-04-03T04:16:33;12.15;;;2.40;;
28180;SDS011;15464;50.988;10.318;2023-04-03T04:19:00;7.90;;;2.45;;
28180;SDS011;15464;50.988;10.318;2023-04-03T04:21:27;7.30;;;2.63;;
28180;SDS011;15464;50.988;10.318;2023-04-03T04:23:54;11.10;;;2.72;;
28180;SDS011;15464;50.988;10.318;2023-04-03T04:26:20;7.80;;;3.10;;
28180;SDS011;15464;50.988;10.318;2023-04-03T04:28:47;9.52;;;3.03;;
28180;SDS011;15464;50.988;10.318;2023-04-03T04:31:14;8.65;;;3.25;;
28180;SDS011;15464;50.988;10.318;2023-04-03T04:33:40;9.77;;;3.10;;
28180;SDS011;15464;50.988;10.318;2023-04-03T04:36:07;6.40;;;3.25;;
28180;SDS011;15464;50.988;10.318;2023-04-03T04:38:34;9.30;;;3.05;;
28180;SDS011;15464;50.988;10.318;2023-04-03T04:41:01;8.30;;;3.25;;
28180;SDS011;15464;50.988;10.318;2023-04-03T04:43:28;7.78;;;3.22;;
28180;SDS011;15464;50.988;10.318;2023-04-03T04:46:04;8.02;;;3.60;;
28180;SDS011;15464;50.988;10.318;2023-04-03T04:48:33;7.13;;;3.15;;
28180;SDS011;15464;50.988;10.318;2023-04-03T04:51:01;8.45;;;3.22;;
28180;SDS011;15464;50.988;10.318;2023-04-03T04:53:28;7.22;;;3.20;;
28180;SDS011;15464;50.988;10.318;2023-04-03T04:55:55;13.13;;;3.60;;
28180;SDS011;15464;50.988;10.318;2023-04-03T04:58:21;9.05;;;3.88;;
28180;SDS011;15464;50.988;10.318;2023-04-03T05:00:48;11.60;;;4.50;;
28180;SDS011;15464;50.988;10.318;2023-04-03T05:03:15;8.70;;;4.10;;
28180;SDS011;15464;50.988;10.318;2023-04-03T05:05:41;8.63;;;3.78;;
28180;SDS011;15464;50.988;10.318;2023-04-03T05:08:08;7.60;;;3.35;;
28180;SDS011;15464;50.988;10.318;2023-04-03T05:10:35;9.27;;;3.75;;
28180;SDS011;15464;50.988;10.318;2023-04-03T05:13:02;11.43;;;3.42;;
28180;SDS011;15464;50.988;10.318;2023-04-03T05:15:28;10.63;;;3.75;;
28180;SDS011;15464;50.988;10.318;2023-04-03T05:17:55;7.93;;;3.50;;
28180;SDS011;15464;50.988;10.318;2023-04-03T05:20:22;7.45;;;3.28;;
28180;SDS011;15464;50.988;10.318;2023-04-03T05:22:49;6.65;;;3.88;;
28180;SDS011;15464;50.988;10.318;2023-04-03T05:25:15;11.40;;;3.40;;
28180;SDS011;15464;50.988;10.318;2023-04-03T05:27:42;8.75;;;3.03;;
28180;SDS011;15464;50.988;10.318;2023-04-03T05:30:09;8.90;;;3.38;;
28180;SDS011;15464;50.988;10.318;2023-04-03T05:32:36;7.75;;;3.42;;
28180;SDS011;15464;50.988;10.318;2023-04-03T05:35:04;14.18;;;4.38;;
28180;SDS011;15464;50.988;10.318;2023-04-03T05:37:32;8.95;;;3.55;;
28180;SDS011;15464;50.988;10.318;2023-04-03T05:39:59;8.77;;;4.05;;
28180;SDS011;15464;50.988;10.318;2023-04-03T05:42:25;12.77;;;3.75;;
28180;SDS011;15464;50.988;10.318;2023-04-03T05:44:52;6.53;;;3.97;;
28180;SDS011;15464;50.988;10.318;2023-04-03T05:47:19;7.22;;;3.65;;
28180;SDS011;15464;50.988;10.318;2023-04-03T05:49:46;9.43;;;4.63;;
28180;SDS011;15464;50.988;10.318;2023-04-03T05:52:33;8.68;;;3.78;;
28180;SDS011;15464;50.988;10.318;2023-04-03T05:55:04;8.00;;;3.92;;
28180;SDS011;15464;50.988;10.318;2023-04-03T05:57:31;6.22;;;3.60;;
28180;SDS011;15464;50.988;10.318;2023-04-03T05:59:58;7.55;;;4.00;;
28180;SDS011;15464;50.988;10.318;2023-04-03T06:02:24;15.15;;;4.93;;
28180;SDS011;15464;50.988;10.318;2023-04-03T06:04:52;9.65;;;4.38;;
28180;SDS011;15464;50.988;10.318;2023-04-03T06:07:20;8.57;;;3.75;;
28180;SDS011;15464;50.988;10.318;2023-04-03T06:09:51;8.48;;;4.22;;
28180;SDS011;15464;50.988;10.318;2023-04-03T06:12:19;5.18;;;3.67;;
28180;SDS011;15464;50.988;10.318;2023-04-03T06:14:46;10.90;;;4.25;;
28180;SDS011;15464;50.988;10.318;2023-04-03T06:17:12;7.38;;;4.45;;
28180;SDS011;15464;50.988;10.318;2023-04-03T06:19:40;13.68;;;4.95;;
28180;SDS011;15464;50.988;10.318;2023-04-03T06:22:07;13.10;;;4.65;;
28180;SDS011;15464;50.988;10.318;2023-04-03T06:24:33;10.07;;;4.22;;
28180;SDS011;15464;50.988;10.318;2023-04-03T06:27:00;7.45;;;4.45;;
28180;SDS011;15464;50.988;10.318;2023-04-03T06:29:27;8.82;;;4.25;;
28180;SDS011;15464;50.988;10.318;2023-04-03T06:31:53;10.20;;;5.18;;
28180;SDS011;15464;50.988;10.318;2023-04-03T06:34:20;10.40;;;4.10;;
28180;SDS011;15464;50.988;10.318;2023-04-03T06:36:47;10.65;;;4.45;;
28180;SDS011;15464;50.988;10.318;2023-04-03T06:39:16;12.05;;;4.95;;
28180;SDS011;15464;50.988;10.318;2023-04-03T06:41:44;8.05;;;3.75;;
28180;SDS011;15464;50.988;10.318;2023-04-03T06:44:10;7.57;;;4.00;;
28180;SDS011;15464;50.988;10.318;2023-04-03T06:46:39;5.90;;;3.80;;
28180;SDS011;15464;50.988;10.318;2023-04-03T06:49:06;9.85;;;4.53;;
28180;SDS011;15464;50.988;10.318;2023-04-03T06:51:34;11.32;;;4.45;;
28180;SDS011;15464;50.988;10.318;2023-04-03T06:54:02;11.35;;;4.72;;
28180;SDS011;15464;50.988;10.318;2023-04-03T06:56:29;11.20;;;3.80;;
28180;SDS011;15464;50.988;10.318;2023-04-03T06:58:56;9.88;;;3.80;;
28180;SDS011;15464;50.988;10.318;2023-04-03T07:01:25;6.35;;;3.70;;
28180;SDS011;15464;50.988;10.318;2023-04-03T07:03:54;9.98;;;4.10;;
28180;SDS011;15464;50.988;10.318;2023-04-03T07:06:21;12.23;;;3.95;;
28180;SDS011;15464;50.988;10.318;2023-04-03T07:08:48;20.65;;;5.07;;
28180;SDS011;15464;50.988;10.318;2023-04-03T07:11:16;10.18;;;4.30;;
28180;SDS011;15464;50.988;10.318;2023-04-03T07:13:43;7.25;;;3.63;;
28180;SDS011;15464;50.988;10.318;2023-04-03T07:16:09;7.20;;;3.85;;
28180;SDS011;15464;50.988;10.318;2023-04-03T07:18:37;7.38;;;3.25;;
28180;SDS011;15464;50.988;10.318;2023-04-03T07:21:04;9.55;;;3.33;;
28180;SDS011;15464;50.988;10.318;2023-04-03T07:23:31;6.68;;;3.60;;
28180;SDS011;15464;50.988;10.318;2023-04-03T07:25:58;7.05;;;2.78;;
28180;SDS011;15464;50.988;10.318;2023-04-03T07:28:24;10.70;;;3.42;;
28180;SDS011;15464;50.988;10.318;2023-04-03T07:31:02;4.35;;;2.75;;
28180;SDS011;15464;50.988;10.318;2023-04-03T07:33:31;8.77;;;3.13;;
28180;SDS011;15464;50.988;10.318;2023-04-03T07:35:58;7.82;;;3.13;;
28180;SDS011;15464;50.988;10.318;2023-04-03T07:38:26;6.68;;;3.10;;
28180;SDS011;15464;50.988;10.318;2023-04-03T07:40:53;7.97;;;3.45;;
28180;SDS011;15464;50.988;10.318;2023-04-03T07:43:20;17.85;;;4.65;;
28180;SDS011;15464;50.988;10.318;2023-04-03T07:45:48;6.03;;;2.95;;
28180;SDS011;15464;50.988;10.318;2023-04-03T07:48:19;6.10;;;3.58;;
28180;SDS011;15464;50.988;10.318;2023-04-03T07:50:46;7.35;;;2.95;;
28180;SDS011;15464;50.988;10.318;2023-04-03T07:53:13;6.93;;;2.83;;
28180;SDS011;15464;50.988;10.318;2023-04-03T07:55:41;6.05;;;2.75;;
28180;SDS011;15464;50.988;10.318;2023-04-03T07:58:11;8.43;;;2.88;;
28180;SDS011;15464;50.988;10.318;2023-04-03T08:00:40;7.47;;;1.90;;
28180;SDS011;15464;50.988;10.318;2023-04-03T08:03:08;8.95;;;3.15;;
28180;SDS011;15464;50.988;10.318;2023-04-03T08:05:41;6.63;;;3.42;;
28180;SDS011;15464;50.988;10.318;2023-04-03T08:08:09;6.60;;;2.92;;
28180;SDS011;15464;50.988;10.318;2023-04-03T08:10:37;4.75;;;2.20;;
28180;SDS011;15464;50.988;10.318;2023-04-03T08:13:05;6.32;;;2.05;;
28180;SDS011;15464;50.988;10.318;2023-04-03T08:15:32;5.38;;;2.33;;
28180;SDS011;15464;50.988;10.318;2023-04-03T08:17:59;7.95;;;2.90;;
28180;SDS011;15464;50.988;10.318;2023-04-03T08:20:27;6.55;;;2.38;;
28180;SDS011;15464;50.988;10.318;2023-04-03T08:22:54;7.22;;;2.40;;
28180;SDS011;15464;50.988;10.318;2023-04-03T08:25:21;10.98;;;2.60;;
28180;SDS011;15464;50.988;10.318;2023-04-03T08:27:48;5.05;;;1.90;;
28180;SDS011;15464;50.988;10.318;2023-04-03T08:30:15;6.18;;;1.77;;
28180;SDS011;15464;50.988;10.318;2023-04-03T08:32:42;10.27;;;1.95;;
28180;SDS011;15464;50.988;10.318;2023-04-03T08:35:10;7.22;;;1.80;;
28180;SDS011;15464;50.988;10.318;2023-04-03T08:37:38;8.75;;;1.98;;
28180;SDS011;15464;50.988;10.318;2023-04-03T08:40:06;5.40;;;1.98;;
28180;SDS011;15464;50.988;10.318;2023-04-03T08:45:18;8.05;;;1.65;;
28180;SDS011;15464;50.988;10.318;2023-04-03T08:48:20;3.97;;;1.70;;
28180;SDS011;15464;50.988;10.318;2023-04-03T08:50:50;4.03;;;1.48;;
28180;SDS011;15464;50.988;10.318;2023-04-03T08:53:21;5.20;;;1.45;;
28180;SDS011;15464;50.988;10.318;2023-04-03T08:58:23;6.28;;;1.90;;
28180;SDS011;15464;50.988;10.318;2023-04-03T09:00:59;3.03;;;1.50;;
28180;SDS011;15464;50.988;10.318;2023-04-03T09:03:30;7.90;;;1.83;;
28180;SDS011;15464;50.988;10.318;2023-04-03T09:06:07;7.20;;;1.90;;
28180;SDS011;15464;50.988;10.318;2023-04-03T09:17:32;4.47;;;1.40;;
28180;SDS011;15464;50.988;10.318;2023-04-03T09:20:14;4.70;;;1.38;;
28180;SDS011;15464;50.988;10.318;2023-04-03T09:22:50;4.53;;;1.55;;
28180;SDS011;15464;50.988;10.318;2023-04-03T09:27:50;4.88;;;1.48;;
28180;SDS011;15464;50.988;10.318;2023-04-03T09:30:19;2.90;;;1.15;;
28180;SDS011;15464;50.988;10.318;2023-04-03T09:32:51;3.20;;;1.80;;
28180;SDS011;15464;50.988;10.318;2023-04-03T09:40:41;3.88;;;1.33;;
28180;SDS011;15464;50.988;10.318;2023-04-03T09:43:30;6.07;;;1.60;;
28180;SDS011;15464;50.988;10.318;2023-04-03T09:48:58;7.32;;;1.77;;
28180;SDS011;15464;50.988;10.318;2023-04-03T09:51:35;3.85;;;1.55;;
28180;SDS011;15464;50.988;10.318;2023-04-03T09:54:24;5.18;;;1.48;;
28180;SDS011;15464;50.988;10.318;2023-04-03T09:57:01;4.53;;;1.70;;
28180;SDS011;15464;50.988;10.318;2023-04-03T09:59:32;2.85;;;1.42;;
28180;SDS011;15464;50.988;10.318;2023-04-03T10:02:00;4.03;;;1.63;;
28180;SDS011;15464;50.988;10.318;2023-04-03T10:04:40;2.47;;;1.05;;
28180;SDS011;15464;50.988;10.318;2023-04-03T10:09:56;3.47;;;1.30;;
28180;SDS011;15464;50.988;10.318;2023-04-03T10:12:24;5.22;;;1.40;;
28180;SDS011;15464;50.988;10.318;2023-04-03T10:53:24;3.42;;;1.27;;
28180;SDS011;15464;50.988;10.318;2023-04-03T10:59:13;9.75;;;1.83;;
28180;SDS011;15464;50.988;10.318;2023-04-03T11:01:42;4.90;;;1.45;;
28180;SDS011;15464;50.988;10.318;2023-04-03T11:04:11;3.28;;;1.48;;
28180;SDS011;15464;50.988;10.318;2023-04-03T11:06:46;3.03;;;1.20;;
28180;SDS011;15464;50.988;10.318;2023-04-03T11:11:55;6.90;;;1.40;;
28180;SDS011;15464;50.988;10.318;2023-04-03T11:14:31;6.28;;;1.77;;
28180;SDS011;15464;50.988;10.318;2023-04-03T11:20:03;3.92;;;1.20;;
28180;SDS011;15464;50.988;10.318;2023-04-03T11:22:41;3.13;;;1.08;;
28180;SDS011;15464;50.988;10.318;2023-04-03T11:27:48;3.67;;;1.33;;
28180;SDS011;15464;50.988;10.318;2023-04-03T11:30:25;2.28;;;1.70;;
28180;SDS011;15464;50.988;10.318;2023-04-03T11:36:05;4.45;;;1.60;;
28180;SDS011;15464;50.988;10.318;2023-04-03T11:38:52;6.85;;;1.52;;
28180;SDS011;15464;50.988;10.318;2023-04-03T11:41:26;4.93;;;1.63;;
28180;SDS011;15464;50.988;10.318;2023-04-03T11:43:59;4.13;;;1.63;;
28180;SDS011;15464;50.988;10.318;2023-04-03T11:57:45;2.50;;;1.45;;
28180;SDS011;15464;50.988;10.318;2023-04-03T12:16:22;8.13;;;2.47;;
28180;SDS011;15464;50.988;10.318;2023-04-03T12:21:23;3.45;;;1.33;;
28180;SDS011;15464;50.988;10.318;2023-04-03T12:26:43;6.10;;;1.70;;
28180;SDS011;15464;50.988;10.318;2023-04-03T12:43:39;2.90;;;1.40;;
28180;SDS011;15464;50.988;10.318;2023-04-03T12:46:17;4.75;;;1.30;;
28180;SDS011;15464;50.988;10.318;2023-04-03T12:48:48;5.32;;;1.55;;
28180;SDS011;15464;50.988;10.318;2023-04-03T12:54:22;4.35;;;1.98;;
28180;SDS011;15464;50.988;10.318;2023-04-03T12:57:08;2.10;;;1.23;;
28180;SDS011;15464;50.988;10.318;2023-04-03T12:59:54;2.42;;;1.10;;
28180;SDS011;15464;50.988;10.318;2023-04-03T13:02:30;4.57;;;1.42;;
28180;SDS011;15464;50.988;10.318;2023-04-03T13:07:34;4.13;;;1.20;;
28180;SDS011;15464;50.988;10.318;2023-04-03T13:12:35;2.42;;;1.42;;
28180;SDS011;15464;50.988;10.318;2023-04-03T13:15:13;4.30;;;1.60;;
28180;SDS011;15464;50.988;10.318;2023-04-03T13:17:44;2.55;;;1.40;;
28180;SDS011;15464;50.988;10.318;2023-04-03T13:20:12;4.13;;;1.80;;
28180;SDS011;15464;50.988;10.318;2023-04-03T13:22:47;4.25;;;1.27;;
28180;SDS011;15464;50.988;10.318;2023-04-03T13:25:20;2.43;;;1.40;;
28180;SDS011;15464;50.988;10.318;2023-04-03T13:27:50;6.00;;;1.73;;
28180;SDS011;15464;50.988;10.318;2023-04-03T13:30:30;3.13;;;1.58;;
28180;SDS011;15464;50.988;10.318;2023-04-03T13:33:00;7.18;;;1.63;;
28180;SDS011;15464;50.988;10.318;2023-04-03T13:35:35;3.50;;;1.75;;
28180;SDS011;15464;50.988;10.318;2023-04-03T13:41:05;5.15;;;1.95;;
28180;SDS011;15464;50.988;10.318;2023-04-03T13:46:54;2.63;;;1.45;;
28180;SDS011;15464;50.988;10.318;2023-04-03T13:51:54;3.13;;;1.50;;
28180;SDS011;15464;50.988;10.318;2023-04-03T13:54:34;2.80;;;1.30;;
28180;SDS011;15464;50.988;10.318;2023-04-03T13:57:10;4.90;;;1.73;;
28180;SDS011;15464;50.988;10.318;2023-04-03T13:59:39;3.63;;;1.90;;
28180;SDS011;15464;50.988;10.318;2023-04-03T14:04:45;3.22;;;1.30;;
28180;SDS011;15464;50.988;10.318;2023-04-03T14:07:15;6.28;;;1.67;;
28180;SDS011;15464;50.988;10.318;2023-04-03T14:09:44;4.88;;;1.85;;
28180;SDS011;15464;50.988;10.318;2023-04-03T14:14:57;4.05;;;1.67;;
28180;SDS011;15464;50.988;10.318;2023-04-03T14:17:29;2.95;;;1.50;;
28180;SDS011;15464;50.988;10.318;2023-04-03T14:19:57;2.40;;;1.38;;
28180;SDS011;15464;50.988;10.318;2023-04-03T14:22:26;2.65;;;1.35;;
28180;SDS011;15464;50.988;10.318;2023-04-03T14:24:56;4.30;;;1.27;;
28180;SDS011;15464;50.988;10.318;2023-04-03T14:27:27;4.70;;;1.17;;
28180;SDS011;15464;50.988;10.318;2023-04-03T14:30:04;5.05;;;1.70;;
28180;SDS011;15464;50.988;10.318;2023-04-03T14:32:34;4.85;;;1.63;;
28180;SDS011;15464;50.988;10.318;2023-04-03T14:35:01;4.00;;;1.40;;
28180;SDS011;15464;50.988;10.318;2023-04-03T14:37:28;4.03;;;1.80;;
28180;SDS011;15464;50.988;10.318;2023-04-03T14:39:57;3.28;;;1.52;;
28180;SDS011;15464;50.988;10.318;2023-04-03T14:42:26;5.33;;;1.70;;
28180;SDS011;15464;50.988;10.318;2023-04-03T14:44:56;6.15;;;1.55;;
28180;SDS011;15464;50.988;10.318;2023-04-03T14:47:24;4.35;;;1.33;;
28180;SDS011;15464;50.988;10.318;2023-04-03T14:49:57;2.85;;;1.45;;
28180;SDS011;15464;50.988;10.318;2023-04-03T14:52:27;3.15;;;1.20;;
28180;SDS011;15464;50.988;10.318;2023-04-03T14:54:56;3.60;;;1.60;;
28180;SDS011;15464;50.988;10.318;2023-04-03T14:57:24;4.15;;;2.03;;
28180;SDS011;15464;50.988;10.318;2023-04-03T14:59:52;5.40;;;1.83;;
28180;SDS011;15464;50.988;10.318;2023-04-03T15:04:59;6.70;;;1.60;;
28180;SDS011;15464;50.988;10.318;2023-04-03T15:07:30;4.18;;;1.38;;
28180;SDS011;15464;50.988;10.318;2023-04-03T15:10:02;4.45;;;1.77;;
28180;SDS011;15464;50.988;10.318;2023-04-03T15:12:41;6.50;;;2.10;;
28180;SDS011;15464;50.988;10.318;2023-04-03T15:15:08;5.15;;;1.85;;
28180;SDS011;15464;50.988;10.318;2023-04-03T15:17:36;3.40;;;1.83;;
28180;SDS011;15464;50.988;10.318;2023-04-03T15:20:05;4.60;;;2.05;;
28180;SDS011;15464;50.988;10.318;2023-04-03T15:22:41;6.22;;;1.80;;
28180;SDS011;15464;50.988;10.318;2023-04-03T15:25:08;3.22;;;1.75;;
28180;SDS011;15464;50.988;10.318;2023-04-03T15:27:36;4.50;;;1.80;;
28180;SDS011;15464;50.988;10.318;2023-04-03T15:30:05;3.88;;;1.63;;
28180;SDS011;15464;50.988;10.318;2023-04-03T15:32:33;2.70;;;1.80;;
28180;SDS011;15464;50.988;10.318;2023-04-03T15:35:01;4.47;;;1.50;;
28180;SDS011;15464;50.988;10.318;2023-04-03T15:37:28;6.72;;;1.77;;
28180;SDS011;15464;50.988;10.318;2023-04-03T15:39:55;5.18;;;1.80;;
28180;SDS011;15464;50.988;10.318;2023-04-03T15:42:21;3.00;;;1.58;;
28180;SDS011;15464;50.988;10.318;2023-04-03T15:44:48;5.38;;;1.52;;
28180;SDS011;15464;50.988;10.318;2023-04-03T15:47:15;4.68;;;2.13;;
28180;SDS011;15464;50.988;10.318;2023-04-03T15:49:41;3.00;;;1.45;;
28180;SDS011;15464;50.988;10.318;2023-04-03T15:52:08;2.70;;;1.70;;
28180;SDS011;15464;50.988;10.318;2023-04-03T15:54:35;5.05;;;1.92;;
28180;SDS011;15464;50.988;10.318;2023-04-03T15:57:01;5.25;;;1.75;;
28180;SDS011;15464;50.988;10.318;2023-04-03T15:59:28;5.15;;;1.60;;
28180;SDS011;15464;50.988;10.318;2023-04-03T16:01:57;4.95;;;1.80;;
28180;SDS011;15464;50.988;10.318;2023-04-03T16:04:25;3.58;;;1.88;;
28180;SDS011;15464;50.988;10.318;2023-04-03T16:06:52;4.30;;;1.38;;
28180;SDS011;15464;50.988;10.318;2023-04-03T16:09:19;8.35;;;1.83;;
28180;SDS011;15464;50.988;10.318;2023-04-03T16:11:46;7.15;;;2.67;;
28180;SDS011;15464;50.988;10.318;2023-04-03T16:14:13;5.78;;;1.77;;
28180;SDS011;15464;50.988;10.318;2023-04-03T16:16:39;2.58;;;1.63;;
28180;SDS011;15464;50.988;10.318;2023-04-03T16:19:06;3.95;;;1.95;;
28180;SDS011;15464;50.988;10.318;2023-04-03T16:21:33;4.43;;;1.80;;
28180;SDS011;15464;50.988;10.318;2023-04-03T16:24:00;5.00;;;1.70;;
28180;SDS011;15464;50.988;10.318;2023-04-03T16:26:28;5.80;;;2.40;;
28180;SDS011;15464;50.988;10.318;2023-04-03T16:28:55;6.63;;;3.40;;
28180;SDS011;15464;50.988;10.318;2023-04-03T16:31:22;4.97;;;2.40;;
28180;SDS011;15464;50.988;10.318;2023-04-03T16:33:50;5.67;;;1.87;;
28180;SDS011;15464;50.988;10.318;2023-04-03T16:36:17;8.25;;;2.22;;
28180;SDS011;15464;50.988;10.318;2023-04-03T16:38:44;6.28;;;3.28;;
28180;SDS011;15464;50.988;10.318;2023-04-03T16:41:11;4.10;;;2.17;;
28180;SDS011;15464;50.988;10.318;2023-04-03T16:43:37;6.25;;;1.30;;
28180;SDS011;15464;50.988;10.318;2023-04-03T16:46:04;4.85;;;1.92;;
28180;SDS011;15464;50.988;10.318;2023-04-03T16:48:31;5.18;;;1.80;;
28180;SDS011;15464;50.988;10.318;2023-04-03T16:50:58;5.00;;;1.85;;
28180;SDS011;15464;50.988;10.318;2023-04-03T16:53:25;4.63;;;1.90;;
28180;SDS011;15464;50.988;10.318;2023-04-03T16:55:52;7.60;;;1.70;;
28180;SDS011;15464;50.988;10.318;2023-04-03T16:58:19;5.20;;;1.52;;
28180;SDS011;15464;50.988;10.318;2023-04-03T17:00:49;6.47;;;1.70;;
28180;SDS011;15464;50.988;10.318;2023-04-03T17:03:15;4.68;;;2.17;;
28180;SDS011;15464;50.988;10.318;2023-04-03T17:05:42;6.90;;;2.13;;
28180;SDS011;15464;50.988;10.318;2023-04-03T17:08:12;6.35;;;1.92;;
28180;SDS011;15464;50.988;10.318;2023-04-03T17:10:40;5.00;;;2.08;;
28180;SDS011;15464;50.988;10.318;2023-04-03T17:13:06;3.25;;;2.17;;
28180;SDS011;15464;50.988;10.318;2023-04-03T17:15:34;5.40;;;1.73;;
28180;SDS011;15464;50.988;10.318;2023-04-03T17:18:01;6.80;;;1.80;;
28180;SDS011;15464;50.988;10.318;2023-04-03T17:20:28;3.40;;;1.70;;
28180;SDS011;15464;50.988;10.318;2023-04-03T17:22:56;4.18;;;2.00;;
28180;SDS011;15464;50.988;10.318;2023-04-03T17:25:22;3.97;;;1.88;;
28180;SDS011;15464;50.988;10.318;2023-04-03T17:27:49;6.90;;;2.05;;